createdAt,value
2017-07-08T00:00:10.253Z,20.30
2017-07-08T00:01:12.426Z,20.33
2017-07-08T00:02:14.447Z,20.28
2017-07-08T00:03:16.440Z,20.20
2017-07-08T00:04:18.435Z,20.25
2017-07-08T00:05:20.436Z,20.43
2017-07-08T00:06:22.437Z,20.42
2017-07-08T00:07:24.400Z,20.50
2017-07-08T00:08:26.814Z,20.54
2017-07-08T00:09:29.174Z,20.49
2017-07-08T00:10:30.607Z,20.49
2017-07-08T00:11:32.866Z,20.49
2017-07-08T00:12:34.980Z,20.35
2017-07-08T00:13:37.134Z,20.43
2017-07-08T00:14:39.207Z,20.35
2017-07-08T00:15:41.249Z,20.50
2017-07-08T00:16:43.219Z,20.53
2017-07-08T00:17:45.243Z,20.53
2017-07-08T00:18:46.678Z,20.41
2017-07-08T00:19:48.610Z,20.33
2017-07-08T00:20:51.004Z,20.38
2017-07-08T00:21:52.965Z,20.33
2017-07-08T00:22:55.272Z,20.27
2017-07-08T00:23:57.523Z,20.25
2017-07-08T00:24:59.528Z,19.97
2017-07-08T00:26:01.658Z,20.09
2017-07-08T00:27:03.092Z,19.86
2017-07-08T00:28:04.518Z,19.79
2017-07-08T00:29:05.940Z,19.86
2017-07-08T00:30:07.369Z,19.90
2017-07-08T00:31:08.804Z,19.70
2017-07-08T00:32:10.258Z,19.87
2017-07-08T00:33:11.677Z,19.95
2017-07-08T00:34:13.105Z,19.83
2017-07-08T00:35:14.539Z,19.87
2017-07-08T00:36:15.964Z,19.60
2017-07-08T00:37:17.390Z,19.61
2017-07-08T00:38:18.818Z,19.66
2017-07-08T00:39:20.248Z,19.70
2017-07-08T00:40:21.673Z,19.47
2017-07-08T00:41:23.095Z,19.70
2017-07-08T00:42:24.517Z,19.58
2017-07-08T00:43:25.940Z,19.70
2017-07-08T00:44:27.368Z,19.87
2017-07-08T00:45:28.794Z,19.84
2017-07-08T00:46:30.212Z,19.78
2017-07-08T00:47:31.645Z,19.91
2017-07-08T00:48:33.065Z,19.88
2017-07-08T00:49:34.486Z,19.78
2017-07-08T00:50:35.919Z,19.86
2017-07-08T00:51:37.341Z,19.86
2017-07-08T00:52:38.775Z,19.80
2017-07-08T00:53:40.197Z,19.90
2017-07-08T00:54:41.618Z,19.87
2017-07-08T00:55:43.047Z,20.05
2017-07-08T00:56:44.472Z,20.05
2017-07-08T00:57:45.901Z,19.94
2017-07-08T00:58:47.325Z,20.00
2017-07-08T00:59:48.755Z,20.05
2017-07-08T01:00:50.195Z,20.13
2017-07-08T01:01:51.624Z,20.31
2017-07-08T01:02:53.052Z,20.38
2017-07-08T01:03:54.470Z,20.47
2017-07-08T01:04:56.005Z,20.38
2017-07-08T01:05:57.433Z,20.39
2017-07-08T01:06:58.856Z,20.42
2017-07-08T01:08:00.327Z,20.35
2017-07-08T01:09:01.746Z,20.47
2017-07-08T01:10:03.177Z,20.46
2017-07-08T01:11:04.609Z,20.47
2017-07-08T01:12:06.034Z,20.35
2017-07-08T01:13:07.458Z,20.43
2017-07-08T01:14:08.885Z,20.30
2017-07-08T01:15:10.316Z,20.16
2017-07-08T01:16:11.742Z,19.93
2017-07-08T01:17:13.163Z,19.95
2017-07-08T01:18:14.595Z,19.94
2017-07-08T01:19:16.019Z,19.88
2017-07-08T01:20:17.465Z,19.88
2017-07-08T01:21:18.864Z,19.86
2017-07-08T01:22:20.294Z,19.90
2017-07-08T01:23:21.714Z,20.08
2017-07-08T01:24:23.141Z,20.05
2017-07-08T01:25:24.566Z,20.21
2017-07-08T01:26:25.988Z,20.10
2017-07-08T01:27:27.409Z,19.66
2017-07-08T01:28:28.829Z,19.83
2017-07-08T01:29:30.259Z,19.75
2017-07-08T01:30:31.686Z,19.63
2017-07-08T01:31:33.164Z,19.58
2017-07-08T01:32:34.602Z,19.48
2017-07-08T01:33:36.018Z,19.51
2017-07-08T01:34:37.450Z,19.42
2017-07-08T01:35:38.870Z,19.46
2017-07-08T01:36:40.301Z,19.47
2017-07-08T01:37:41.724Z,19.58
2017-07-08T01:38:43.141Z,19.69
2017-07-08T01:39:44.568Z,19.57
2017-07-08T01:40:45.994Z,19.66
2017-07-08T01:41:47.428Z,19.63
2017-07-08T01:42:48.851Z,19.57
2017-07-08T01:43:50.330Z,19.86
2017-07-08T01:44:51.758Z,19.78
2017-07-08T01:45:53.186Z,19.83
2017-07-08T01:46:54.610Z,19.91
2017-07-08T01:47:56.039Z,19.97
2017-07-08T01:48:57.459Z,19.55
2017-07-08T01:49:58.880Z,19.51
2017-07-08T01:51:00.295Z,19.50
2017-07-08T01:52:01.718Z,19.54
2017-07-08T01:53:03.147Z,19.53
2017-07-08T01:54:04.571Z,19.43
2017-07-08T01:55:05.999Z,19.17
2017-07-08T01:56:07.422Z,19.14
2017-07-08T01:57:08.840Z,19.15
2017-07-08T01:58:10.267Z,19.10
2017-07-08T01:59:11.703Z,19.08
2017-07-08T02:00:13.142Z,18.95
2017-07-08T02:01:14.578Z,18.77
2017-07-08T02:02:16.003Z,18.72
2017-07-08T02:03:17.428Z,18.76
2017-07-08T02:04:18.855Z,18.73
2017-07-08T02:05:20.285Z,18.62
2017-07-08T02:06:21.716Z,18.61
2017-07-08T02:07:23.140Z,18.59
2017-07-08T02:08:24.574Z,18.70
2017-07-08T02:09:26.008Z,18.86
2017-07-08T02:10:27.435Z,18.98
2017-07-08T02:11:28.858Z,19.25
2017-07-08T02:12:30.293Z,19.31
2017-07-08T02:13:31.718Z,19.46
2017-07-08T02:14:33.147Z,19.50
2017-07-08T02:15:34.574Z,19.47
2017-07-08T02:16:36.017Z,19.46
2017-07-08T02:17:37.434Z,19.46
2017-07-08T02:18:38.857Z,19.40
2017-07-08T02:19:40.283Z,19.42
2017-07-08T02:20:41.712Z,19.32
2017-07-08T02:21:43.135Z,19.05
2017-07-08T02:22:44.558Z,19.13
2017-07-08T02:23:45.985Z,19.11
2017-07-08T02:24:47.419Z,19.17
2017-07-08T02:25:48.849Z,19.17
2017-07-08T02:26:50.265Z,19.20
2017-07-08T02:27:51.706Z,19.18
2017-07-08T02:28:53.137Z,19.29
2017-07-08T02:29:54.558Z,19.29
2017-07-08T02:30:55.986Z,19.36
2017-07-08T02:31:57.415Z,19.38
2017-07-08T02:32:58.834Z,19.06
2017-07-08T02:34:00.264Z,19.02
2017-07-08T02:35:01.693Z,18.94
2017-07-08T02:36:03.125Z,18.95
2017-07-08T02:37:04.550Z,19.06
2017-07-08T02:38:05.979Z,19.10
2017-07-08T02:39:07.402Z,18.97
2017-07-08T02:40:08.829Z,18.83
2017-07-08T02:41:10.254Z,18.50
2017-07-08T02:42:11.673Z,18.62
2017-07-08T02:43:13.097Z,18.79
2017-07-08T02:44:14.521Z,18.92
2017-07-08T02:45:15.947Z,18.98
2017-07-08T02:46:17.368Z,18.86
2017-07-08T02:47:18.844Z,18.61
2017-07-08T02:48:20.209Z,18.43
2017-07-08T02:49:21.642Z,18.47
2017-07-08T02:50:23.069Z,18.50
2017-07-08T02:51:24.494Z,18.43
2017-07-08T02:52:25.915Z,18.17
2017-07-08T02:53:27.335Z,18.04
2017-07-08T02:54:29.489Z,18.07
2017-07-08T02:55:30.921Z,18.02
2017-07-08T02:56:32.419Z,18.02
2017-07-08T02:57:33.839Z,18.24
2017-07-08T02:58:35.262Z,18.22
2017-07-08T02:59:36.767Z,18.44
2017-07-08T03:00:38.192Z,18.55
2017-07-08T03:01:39.615Z,18.64
2017-07-08T03:02:41.038Z,18.55
2017-07-08T03:03:42.470Z,18.65
2017-07-08T03:04:43.959Z,18.58
2017-07-08T03:05:45.392Z,18.33
2017-07-08T03:06:46.811Z,18.46
2017-07-08T03:07:48.341Z,18.44
2017-07-08T03:08:49.767Z,18.37
2017-07-08T03:09:51.190Z,18.42
2017-07-08T03:10:52.618Z,18.21
2017-07-08T03:11:54.049Z,18.06
2017-07-08T03:12:55.476Z,18.04
2017-07-08T03:13:56.903Z,18.00
2017-07-08T03:14:58.324Z,18.06
2017-07-08T03:15:59.754Z,18.09
2017-07-08T03:17:01.176Z,18.15
2017-07-08T03:18:02.598Z,18.21
2017-07-08T03:19:04.028Z,18.27
2017-07-08T03:20:05.459Z,18.12
2017-07-08T03:21:06.903Z,18.13
2017-07-08T03:22:08.324Z,18.17
2017-07-08T03:23:09.747Z,18.22
2017-07-08T03:24:11.178Z,18.39
2017-07-08T03:25:12.596Z,18.43
2017-07-08T03:26:14.025Z,18.54
2017-07-08T03:27:15.457Z,18.50
2017-07-08T03:28:16.885Z,18.44
2017-07-08T03:29:18.316Z,18.36
2017-07-08T03:30:19.738Z,18.40
2017-07-08T03:31:21.172Z,18.44
2017-07-08T03:32:22.612Z,18.40
2017-07-08T03:33:24.032Z,18.46
2017-07-08T03:34:25.462Z,18.46
2017-07-08T03:35:26.888Z,18.36
2017-07-08T03:36:28.317Z,18.39
2017-07-08T03:37:29.739Z,18.44
2017-07-08T03:38:31.165Z,18.42
2017-07-08T03:39:32.592Z,18.43
2017-07-08T03:40:34.016Z,18.43
2017-07-08T03:41:35.442Z,18.40
2017-07-08T03:42:36.865Z,18.46
2017-07-08T03:43:38.294Z,18.43
2017-07-08T03:44:39.719Z,18.46
2017-07-08T03:45:41.145Z,18.64
2017-07-08T03:46:42.584Z,18.58
2017-07-08T03:47:44.009Z,18.61
2017-07-08T03:48:45.430Z,18.64
2017-07-08T03:49:46.854Z,18.61
2017-07-08T03:50:48.279Z,18.79
2017-07-08T03:51:49.705Z,18.86
2017-07-08T03:52:51.129Z,18.77
2017-07-08T03:53:52.556Z,18.99
2017-07-08T03:54:53.979Z,18.99
2017-07-08T03:55:55.407Z,18.90
2017-07-08T03:56:56.836Z,18.90
2017-07-08T03:57:58.263Z,18.61
2017-07-08T03:58:59.693Z,18.77
2017-07-08T04:00:01.119Z,18.80
2017-07-08T04:01:02.552Z,18.73
2017-07-08T04:02:03.972Z,18.65
2017-07-08T04:03:05.397Z,18.67
2017-07-08T04:04:06.825Z,18.82
2017-07-08T04:05:08.257Z,18.98
2017-07-08T04:06:09.695Z,18.87
2017-07-08T04:07:11.118Z,18.61
2017-07-08T04:08:12.541Z,18.50
2017-07-08T04:09:13.970Z,18.36
2017-07-08T04:10:15.405Z,18.33
2017-07-08T04:11:16.834Z,18.17
2017-07-08T04:12:18.344Z,18.06
2017-07-08T04:13:19.766Z,18.00
2017-07-08T04:14:21.188Z,17.92
2017-07-08T04:15:22.614Z,17.85
2017-07-08T04:16:24.040Z,17.91
2017-07-08T04:17:25.475Z,17.89
2017-07-08T04:18:26.896Z,17.92
2017-07-08T04:19:28.325Z,17.88
2017-07-08T04:20:29.748Z,17.95
2017-07-08T04:21:31.170Z,17.89
2017-07-08T04:22:32.591Z,18.04
2017-07-08T04:23:34.024Z,18.17
2017-07-08T04:24:35.456Z,18.28
2017-07-08T04:25:36.889Z,18.39
2017-07-08T04:26:38.323Z,18.46
2017-07-08T04:27:39.747Z,18.52
2017-07-08T04:28:41.175Z,18.61
2017-07-08T04:29:42.594Z,18.70
2017-07-08T04:30:44.023Z,18.77
2017-07-08T04:31:45.464Z,18.86
2017-07-08T04:32:46.949Z,18.98
2017-07-08T04:33:48.361Z,19.08
2017-07-08T04:34:49.793Z,19.06
2017-07-08T04:35:51.225Z,19.11
2017-07-08T04:36:52.651Z,19.21
2017-07-08T04:37:54.075Z,19.32
2017-07-08T04:38:55.504Z,19.38
2017-07-08T04:39:56.937Z,19.40
2017-07-08T04:40:58.367Z,19.54
2017-07-08T04:41:59.799Z,19.70
2017-07-08T04:43:01.225Z,19.68
2017-07-08T04:44:02.653Z,19.83
2017-07-08T04:45:04.079Z,19.70
2017-07-08T04:46:05.506Z,19.78
2017-07-08T04:47:06.934Z,19.72
2017-07-08T04:48:08.356Z,19.66
2017-07-08T04:49:09.779Z,19.70
2017-07-08T04:50:11.209Z,19.69
2017-07-08T04:51:12.652Z,19.90
2017-07-08T04:52:14.081Z,19.86
2017-07-08T04:53:15.521Z,19.83
2017-07-08T04:54:16.952Z,19.68
2017-07-08T04:55:18.378Z,19.84
2017-07-08T04:56:19.812Z,19.87
2017-07-08T04:57:21.240Z,19.87
2017-07-08T04:58:22.669Z,19.84
2017-07-08T04:59:24.113Z,19.86
2017-07-08T05:00:25.541Z,19.97
2017-07-08T05:01:26.965Z,19.88
2017-07-08T05:02:28.393Z,19.86
2017-07-08T05:03:29.818Z,19.78
2017-07-08T05:04:31.259Z,19.69
2017-07-08T05:05:32.684Z,19.79
2017-07-08T05:06:34.117Z,19.83
2017-07-08T05:07:35.548Z,19.72
2017-07-08T05:08:36.976Z,19.75
2017-07-08T05:09:38.404Z,19.86
2017-07-08T05:10:39.833Z,19.86
2017-07-08T05:11:41.257Z,19.86
2017-07-08T05:12:42.687Z,19.73
2017-07-08T05:13:44.119Z,19.76
2017-07-08T05:14:45.556Z,19.63
2017-07-08T05:15:46.971Z,19.63
2017-07-08T05:16:48.393Z,19.57
2017-07-08T05:17:49.818Z,19.66
2017-07-08T05:18:51.252Z,19.58
2017-07-08T05:19:52.688Z,19.65
2017-07-08T05:20:54.118Z,19.69
2017-07-08T05:21:55.542Z,19.55
2017-07-08T05:22:56.972Z,19.61
2017-07-08T05:23:58.516Z,19.66
2017-07-08T05:24:59.956Z,19.73
2017-07-08T05:26:01.383Z,19.68
2017-07-08T05:27:02.807Z,19.73
2017-07-08T05:28:04.243Z,19.69
2017-07-08T05:29:05.673Z,19.65
2017-07-08T05:30:07.843Z,19.73
2017-07-08T05:31:09.278Z,19.87
2017-07-08T05:32:10.713Z,19.70
2017-07-08T05:33:12.137Z,19.68
2017-07-08T05:34:13.580Z,19.93
2017-07-08T05:35:15.005Z,20.06
2017-07-08T05:36:16.442Z,20.02
2017-07-08T05:37:17.869Z,20.09
2017-07-08T05:38:19.295Z,20.06
2017-07-08T05:39:20.721Z,20.05
2017-07-08T05:40:22.174Z,20.03
2017-07-08T05:41:23.609Z,20.28
2017-07-08T05:42:25.048Z,20.23
2017-07-08T05:43:26.471Z,20.35
2017-07-08T05:44:27.903Z,20.35
2017-07-08T05:45:29.332Z,20.39
2017-07-08T05:46:30.761Z,20.64
2017-07-08T05:47:32.192Z,20.69
2017-07-08T05:48:33.626Z,20.64
2017-07-08T05:49:35.052Z,20.72
2017-07-08T05:50:36.489Z,20.68
2017-07-08T05:51:37.920Z,20.71
2017-07-08T05:52:39.352Z,20.74
2017-07-08T05:53:40.780Z,20.74
2017-07-08T05:54:42.211Z,20.83
2017-07-08T05:55:43.637Z,20.65
2017-07-08T05:56:45.070Z,20.80
2017-07-08T05:57:46.502Z,20.83
2017-07-08T05:58:47.927Z,20.83
2017-07-08T05:59:49.356Z,20.87
2017-07-08T06:00:50.788Z,20.93
2017-07-08T06:01:52.225Z,20.89
2017-07-08T06:02:53.657Z,20.90
2017-07-08T06:03:55.670Z,20.96
2017-07-08T06:04:57.107Z,20.81
2017-07-08T06:05:58.546Z,20.80
2017-07-08T06:06:59.984Z,20.84
2017-07-08T06:08:01.412Z,20.84
2017-07-08T06:09:02.842Z,20.89
2017-07-08T06:10:04.276Z,20.93
2017-07-08T06:11:05.706Z,20.93
2017-07-08T06:12:07.134Z,20.95
2017-07-08T06:13:08.565Z,21.05
2017-07-08T06:14:09.991Z,20.98
2017-07-08T06:15:11.423Z,21.05
2017-07-08T06:16:12.849Z,21.08
2017-07-08T06:17:14.318Z,21.06
2017-07-08T06:18:15.803Z,21.14
2017-07-08T06:19:17.182Z,21.17
2017-07-08T06:20:18.613Z,21.11
2017-07-08T06:21:20.041Z,21.30
2017-07-08T06:22:21.475Z,21.19
2017-07-08T06:23:22.907Z,21.17
2017-07-08T06:24:24.345Z,21.20
2017-07-08T06:25:25.774Z,21.17
2017-07-08T06:26:27.203Z,21.08
2017-07-08T06:27:28.636Z,20.96
2017-07-08T06:28:30.070Z,20.83
2017-07-08T06:29:31.507Z,20.98
2017-07-08T06:30:32.946Z,20.83
2017-07-08T06:31:34.400Z,20.98
2017-07-08T06:32:35.828Z,20.84
2017-07-08T06:33:37.255Z,20.77
2017-07-08T06:34:39.455Z,20.96
2017-07-08T06:35:40.891Z,21.05
2017-07-08T06:36:42.313Z,21.05
2017-07-08T06:37:43.758Z,21.14
2017-07-08T06:38:45.190Z,21.20
2017-07-08T06:39:46.622Z,21.41
2017-07-08T06:40:48.048Z,21.42
2017-07-08T06:41:49.484Z,21.44
2017-07-08T06:42:51.588Z,21.35
2017-07-08T06:43:53.016Z,21.26
2017-07-08T06:44:54.484Z,21.17
2017-07-08T06:45:55.918Z,21.20
2017-07-08T06:46:57.345Z,21.19
2017-07-08T06:47:58.839Z,21.20
2017-07-08T06:49:00.271Z,21.30
2017-07-08T06:50:01.702Z,21.26
2017-07-08T06:51:03.129Z,21.26
2017-07-08T06:52:04.565Z,21.42
2017-07-08T06:53:05.996Z,21.44
2017-07-08T06:54:07.453Z,21.44
2017-07-08T06:55:08.886Z,21.66
2017-07-08T06:56:10.325Z,21.79
2017-07-08T06:57:11.749Z,21.87
2017-07-08T06:58:13.189Z,21.85
2017-07-08T06:59:14.618Z,21.74
2017-07-08T07:00:16.052Z,21.75
2017-07-08T07:01:17.492Z,21.82
2017-07-08T07:02:18.917Z,21.98
2017-07-08T07:03:20.348Z,21.92
2017-07-08T07:04:21.784Z,21.94
2017-07-08T07:05:23.221Z,21.92
2017-07-08T07:06:24.666Z,21.74
2017-07-08T07:07:26.104Z,21.82
2017-07-08T07:08:27.531Z,21.98
2017-07-08T07:09:28.983Z,21.90
2017-07-08T07:10:30.419Z,21.75
2017-07-08T07:11:31.849Z,21.54
2017-07-08T07:12:33.276Z,21.81
2017-07-08T07:13:34.711Z,21.78
2017-07-08T07:14:36.141Z,21.75
2017-07-08T07:15:37.568Z,21.79
2017-07-08T07:16:39.001Z,21.94
2017-07-08T07:17:40.425Z,22.01
2017-07-08T07:18:41.865Z,22.16
2017-07-08T07:19:43.291Z,22.23
2017-07-08T07:20:44.723Z,22.13
2017-07-08T07:21:46.145Z,22.13
2017-07-08T07:22:47.581Z,22.13
2017-07-08T07:23:49.010Z,22.06
2017-07-08T07:24:50.443Z,22.16
2017-07-08T07:25:51.868Z,22.10
2017-07-08T07:26:53.297Z,22.19
2017-07-08T07:27:54.731Z,22.23
2017-07-08T07:28:56.793Z,22.22
2017-07-08T07:29:58.257Z,22.34
2017-07-08T07:30:59.685Z,22.35
2017-07-08T07:32:01.122Z,22.39
2017-07-08T07:33:02.547Z,22.41
2017-07-08T07:34:03.985Z,22.27
2017-07-08T07:35:05.418Z,22.28
2017-07-08T07:36:06.864Z,22.31
2017-07-08T07:37:08.296Z,22.32
2017-07-08T07:38:09.727Z,22.38
2017-07-08T07:39:11.177Z,22.41
2017-07-08T07:40:12.613Z,22.44
2017-07-08T07:41:14.043Z,22.52
2017-07-08T07:42:15.472Z,22.50
2017-07-08T07:43:16.913Z,22.25
2017-07-08T07:44:18.348Z,22.38
2017-07-08T07:45:19.780Z,22.25
2017-07-08T07:46:21.211Z,22.12
2017-07-08T07:47:22.639Z,22.31
2017-07-08T07:48:24.065Z,22.60
2017-07-08T07:49:25.502Z,22.87
2017-07-08T07:50:26.938Z,22.78
2017-07-08T07:51:28.368Z,22.65
2017-07-08T07:52:29.826Z,22.83
2017-07-08T07:53:31.269Z,22.90
2017-07-08T07:54:32.700Z,22.74
2017-07-08T07:55:34.138Z,22.62
2017-07-08T07:56:35.570Z,22.60
2017-07-08T07:57:37.020Z,22.50
2017-07-08T07:58:38.456Z,22.46
2017-07-08T07:59:39.881Z,22.72
2017-07-08T08:00:41.314Z,22.80
2017-07-08T08:01:42.753Z,22.74
2017-07-08T08:02:44.184Z,22.68
2017-07-08T08:03:45.616Z,22.75
2017-07-08T08:04:47.050Z,22.84
2017-07-08T08:05:48.488Z,22.59
2017-07-08T08:06:49.961Z,22.41
2017-07-08T08:07:51.388Z,22.39
2017-07-08T08:08:52.853Z,22.35
2017-07-08T08:09:54.294Z,22.38
2017-07-08T08:10:55.728Z,22.41
2017-07-08T08:11:57.178Z,22.56
2017-07-08T08:12:58.611Z,22.43
2017-07-08T08:14:00.075Z,22.49
2017-07-08T08:15:01.498Z,22.62
2017-07-08T08:16:02.929Z,22.71
2017-07-08T08:17:04.376Z,22.84
2017-07-08T08:18:05.808Z,23.19
2017-07-08T08:19:07.257Z,23.42
2017-07-08T08:20:08.685Z,23.31
2017-07-08T08:21:10.144Z,23.43
2017-07-08T08:22:11.573Z,23.55
2017-07-08T08:23:13.006Z,23.26
2017-07-08T08:24:14.515Z,23.35
2017-07-08T08:25:15.948Z,23.40
2017-07-08T08:26:17.384Z,23.45
2017-07-08T08:27:18.840Z,23.38
2017-07-08T08:28:20.383Z,23.34
2017-07-08T08:29:21.817Z,23.50
2017-07-08T08:30:23.252Z,23.49
2017-07-08T08:31:24.693Z,23.38
2017-07-08T08:32:26.129Z,23.43
2017-07-08T08:33:27.572Z,23.50
2017-07-08T08:34:29.016Z,23.61
2017-07-08T08:35:30.450Z,23.64
2017-07-08T08:36:31.882Z,23.72
2017-07-08T08:37:33.314Z,23.58
2017-07-08T08:38:34.749Z,23.50
2017-07-08T08:39:36.193Z,23.50
2017-07-08T08:40:37.632Z,23.71
2017-07-08T08:41:39.065Z,23.83
2017-07-08T08:42:40.561Z,23.87
2017-07-08T08:43:41.993Z,23.92
2017-07-08T08:44:43.424Z,23.90
2017-07-08T08:45:44.860Z,23.86
2017-07-08T08:46:46.300Z,23.87
2017-07-08T08:47:47.727Z,23.83
2017-07-08T08:48:49.160Z,23.98
2017-07-08T08:49:50.595Z,23.77
2017-07-08T08:50:52.148Z,23.77
2017-07-08T08:51:53.581Z,23.58
2017-07-08T08:52:55.012Z,23.68
2017-07-08T08:53:56.451Z,23.68
2017-07-08T08:54:57.883Z,23.52
2017-07-08T08:55:59.311Z,23.45
2017-07-08T08:57:00.742Z,23.50
2017-07-08T08:58:02.180Z,23.62
2017-07-08T08:59:03.611Z,23.50
2017-07-08T09:00:05.042Z,23.61
2017-07-08T09:01:06.497Z,23.53
2017-07-08T09:02:07.930Z,23.58
2017-07-08T09:03:09.373Z,23.50
2017-07-08T09:04:10.808Z,23.40
2017-07-08T09:05:12.261Z,23.50
2017-07-08T09:06:13.699Z,23.49
2017-07-08T09:07:15.133Z,23.46
2017-07-08T09:08:16.568Z,23.42
2017-07-08T09:09:18.010Z,23.45
2017-07-08T09:10:19.453Z,23.49
2017-07-08T09:11:20.878Z,23.65
2017-07-08T09:12:22.330Z,23.98
2017-07-08T09:13:23.764Z,24.24
2017-07-08T09:14:25.195Z,24.38
2017-07-08T09:15:26.743Z,24.49
2017-07-08T09:16:28.228Z,24.64
2017-07-08T09:17:29.679Z,24.49
2017-07-08T09:18:31.333Z,24.50
2017-07-08T09:19:32.761Z,24.57
2017-07-08T09:20:34.205Z,24.59
2017-07-08T09:21:35.632Z,24.56
2017-07-08T09:22:37.070Z,24.44
2017-07-08T09:23:38.503Z,24.69
2017-07-08T09:24:39.953Z,24.41
2017-07-08T09:25:41.414Z,24.47
2017-07-08T09:26:42.853Z,24.61
2017-07-08T09:27:44.295Z,24.67
2017-07-08T09:28:45.724Z,24.50
2017-07-08T09:29:47.150Z,24.67
2017-07-08T09:30:48.581Z,24.91
2017-07-08T09:31:50.037Z,25.01
2017-07-08T09:32:51.481Z,24.88
2017-07-08T09:33:52.916Z,25.01
2017-07-08T09:34:54.351Z,25.19
2017-07-08T09:35:55.792Z,25.07
2017-07-08T09:36:57.227Z,25.20
2017-07-08T09:37:58.654Z,25.27
2017-07-08T09:39:00.081Z,25.10
2017-07-08T09:40:01.516Z,25.13
2017-07-08T09:41:02.946Z,25.38
2017-07-08T09:42:04.379Z,25.24
2017-07-08T09:43:05.823Z,25.37
2017-07-08T09:44:07.257Z,25.27
2017-07-08T09:45:08.688Z,25.56
2017-07-08T09:46:10.123Z,25.50
2017-07-08T09:47:11.557Z,25.38
2017-07-08T09:48:12.992Z,25.37
2017-07-08T09:49:14.418Z,25.27
2017-07-08T09:50:15.852Z,25.25
2017-07-08T09:51:17.282Z,25.34
2017-07-08T09:52:18.721Z,25.37
2017-07-08T09:53:20.164Z,25.22
2017-07-08T09:54:21.605Z,24.98
2017-07-08T09:55:23.046Z,24.85
2017-07-08T09:56:24.482Z,24.97
2017-07-08T09:57:25.920Z,25.15
2017-07-08T09:58:27.870Z,25.34
2017-07-08T09:59:29.304Z,25.56
2017-07-08T10:00:30.735Z,25.54
2017-07-08T10:01:32.177Z,25.71
2017-07-08T10:02:33.606Z,25.25
2017-07-08T10:03:35.045Z,25.38
2017-07-08T10:04:37.308Z,25.61
2017-07-08T10:05:39.502Z,25.62
2017-07-08T10:06:40.931Z,25.57
2017-07-08T10:07:42.368Z,25.27
2017-07-08T10:08:43.798Z,25.27
2017-07-08T10:09:45.240Z,25.16
2017-07-08T10:10:46.683Z,25.16
2017-07-08T10:11:48.169Z,25.02
2017-07-08T10:12:49.553Z,25.30
2017-07-08T10:13:50.981Z,25.53
2017-07-08T10:14:52.423Z,25.50
2017-07-08T10:15:53.859Z,25.50
2017-07-08T10:16:55.325Z,25.44
2017-07-08T10:17:56.769Z,25.42
2017-07-08T10:18:58.207Z,25.44
2017-07-08T10:19:59.647Z,25.49
2017-07-08T10:21:01.089Z,25.69
2017-07-08T10:22:02.530Z,25.61
2017-07-08T10:23:03.957Z,25.34
2017-07-08T10:24:05.399Z,25.56
2017-07-08T10:25:06.849Z,25.67
2017-07-08T10:26:08.305Z,25.97
2017-07-08T10:27:09.741Z,25.90
2017-07-08T10:28:11.185Z,25.97
2017-07-08T10:29:12.617Z,26.08
2017-07-08T10:30:14.049Z,25.97
2017-07-08T10:31:15.487Z,25.79
2017-07-08T10:32:16.926Z,25.57
2017-07-08T10:33:18.363Z,25.37
2017-07-08T10:34:19.809Z,25.32
2017-07-08T10:35:21.243Z,25.49
2017-07-08T10:36:22.679Z,25.72
2017-07-08T10:37:24.121Z,25.82
2017-07-08T10:38:25.564Z,26.01
2017-07-08T10:39:27.008Z,26.01
2017-07-08T10:40:28.449Z,25.99
2017-07-08T10:41:29.880Z,26.05
2017-07-08T10:42:31.314Z,25.80
2017-07-08T10:43:32.763Z,25.83
2017-07-08T10:44:34.189Z,26.09
2017-07-08T10:45:35.623Z,26.15
2017-07-08T10:46:37.053Z,26.22
2017-07-08T10:47:38.491Z,26.29
2017-07-08T10:48:39.921Z,26.08
2017-07-08T10:49:41.355Z,25.90
2017-07-08T10:50:42.787Z,25.99
2017-07-08T10:51:44.224Z,26.37
2017-07-08T10:52:46.929Z,26.50
2017-07-08T10:53:48.374Z,26.61
2017-07-08T10:54:49.813Z,26.35
2017-07-08T10:55:51.255Z,26.32
2017-07-08T10:56:52.696Z,26.59
2017-07-08T10:57:54.135Z,26.81
2017-07-08T10:58:55.579Z,27.02
2017-07-08T10:59:57.010Z,26.92
2017-07-08T11:00:58.466Z,26.80
2017-07-08T11:01:59.914Z,27.02
2017-07-08T11:03:01.356Z,27.11
2017-07-08T11:04:02.794Z,27.38
2017-07-08T11:05:04.235Z,27.41
2017-07-08T11:06:05.680Z,27.39
2017-07-08T11:07:07.116Z,27.59
2017-07-08T11:08:08.595Z,27.42
2017-07-08T11:09:10.023Z,27.62
2017-07-08T11:10:11.461Z,27.46
2017-07-08T11:11:12.892Z,27.70
2017-07-08T11:12:14.333Z,28.06
2017-07-08T11:13:15.766Z,27.67
2017-07-08T11:14:17.223Z,27.50
2017-07-08T11:15:18.681Z,27.47
2017-07-08T11:16:50.331Z,27.38
2017-07-08T11:17:51.783Z,27.33
2017-07-08T11:18:53.221Z,27.32
2017-07-08T11:19:54.662Z,27.48
2017-07-08T11:21:00.089Z,27.76
2017-07-08T11:22:33.173Z,27.67
2017-07-08T11:23:47.829Z,27.02
2017-07-08T11:24:52.691Z,27.05
2017-07-08T11:25:59.514Z,27.26
2017-07-08T11:27:03.053Z,27.02
2017-07-08T11:28:04.220Z,26.86
2017-07-08T11:29:05.655Z,26.96
2017-07-08T11:30:07.095Z,26.79
2017-07-08T11:31:08.536Z,26.37
2017-07-08T11:32:09.980Z,26.35
2017-07-08T11:33:11.415Z,26.61
2017-07-08T11:34:12.851Z,27.01
2017-07-08T11:35:14.297Z,27.21
2017-07-08T11:36:15.728Z,27.66
2017-07-08T11:37:17.163Z,27.64
2017-07-08T11:38:18.670Z,27.85
2017-07-08T11:39:20.111Z,28.17
2017-07-08T11:40:21.542Z,28.19
2017-07-08T11:41:22.991Z,28.43
2017-07-08T11:42:24.427Z,28.75
2017-07-08T11:43:25.865Z,28.59
2017-07-08T11:44:27.310Z,28.31
2017-07-08T11:45:28.803Z,28.17
2017-07-08T11:46:30.240Z,28.60
2017-07-08T11:47:31.690Z,28.77
2017-07-08T11:48:33.123Z,29.00
2017-07-08T11:49:34.557Z,28.91
2017-07-08T11:50:35.991Z,28.82
2017-07-08T11:51:37.426Z,28.75
2017-07-08T11:52:38.863Z,28.36
2017-07-08T11:53:40.317Z,28.32
2017-07-08T11:54:41.756Z,27.99
2017-07-08T11:55:43.198Z,27.67
2017-07-08T11:56:44.632Z,27.39
2017-07-08T11:57:46.090Z,27.01
2017-07-08T11:58:47.526Z,26.84
2017-07-08T11:59:48.975Z,26.86
2017-07-08T12:00:50.415Z,26.87
2017-07-08T12:01:51.864Z,26.96
2017-07-08T12:02:53.579Z,27.01
2017-07-08T12:03:55.951Z,27.06
2017-07-08T12:04:57.415Z,27.73
2017-07-08T12:05:58.912Z,28.11
2017-07-08T12:07:00.827Z,28.32
2017-07-08T12:08:02.694Z,28.44
2017-07-08T12:09:04.125Z,28.77
2017-07-08T12:10:05.573Z,28.33
2017-07-08T12:11:07.021Z,28.40
2017-07-08T12:12:08.453Z,28.29
2017-07-08T12:13:09.885Z,28.23
2017-07-08T12:14:11.903Z,28.35
2017-07-08T12:15:13.327Z,28.16
2017-07-08T12:16:14.763Z,28.03
2017-07-08T12:17:16.202Z,28.09
2017-07-08T12:18:17.652Z,27.94
2017-07-08T12:19:19.087Z,28.31
2017-07-08T12:20:20.524Z,28.69
2017-07-08T12:21:21.965Z,28.43
2017-07-08T12:22:23.404Z,28.35
2017-07-08T12:23:24.833Z,28.56
2017-07-08T12:24:26.274Z,28.56
2017-07-08T12:25:27.718Z,28.72
2017-07-08T12:26:29.162Z,28.90
2017-07-08T12:27:30.603Z,28.82
2017-07-08T12:28:32.041Z,28.50
2017-07-08T12:29:33.474Z,28.14
2017-07-08T12:30:34.922Z,27.70
2017-07-08T12:31:36.372Z,27.64
2017-07-08T12:32:37.830Z,27.53
2017-07-08T12:33:39.273Z,27.33
2017-07-08T12:34:40.723Z,27.26
2017-07-08T12:35:42.159Z,27.09
2017-07-08T12:36:43.600Z,26.92
2017-07-08T12:37:45.037Z,26.94
2017-07-08T12:38:46.479Z,27.06
2017-07-08T12:39:47.918Z,27.09
2017-07-08T12:40:49.351Z,26.86
2017-07-08T12:41:50.792Z,27.10
2017-07-08T12:42:52.241Z,27.33
2017-07-08T12:43:53.675Z,27.23
2017-07-08T12:44:55.117Z,27.06
2017-07-08T12:45:56.555Z,27.59
2017-07-08T12:46:57.992Z,28.28
2017-07-08T12:47:59.426Z,28.81
2017-07-08T12:49:00.861Z,28.88
2017-07-08T12:50:02.334Z,29.16
2017-07-08T12:51:03.763Z,29.40
2017-07-08T12:52:05.193Z,29.55
2017-07-08T12:53:06.629Z,29.70
2017-07-08T12:54:08.080Z,29.66
2017-07-08T12:55:09.521Z,29.89
2017-07-08T12:56:10.974Z,29.72
2017-07-08T12:57:12.405Z,29.23
2017-07-08T12:58:13.843Z,29.40
2017-07-08T12:59:15.276Z,29.23
2017-07-08T13:00:16.709Z,29.56
2017-07-08T13:01:18.147Z,29.56
2017-07-08T13:02:19.578Z,29.34
2017-07-08T13:03:21.025Z,28.29
2017-07-08T13:04:22.462Z,28.04
2017-07-08T13:05:23.895Z,27.99
2017-07-08T13:06:25.339Z,28.10
2017-07-08T13:07:26.767Z,28.16
2017-07-08T13:08:28.212Z,28.40
2017-07-08T13:09:29.648Z,28.41
2017-07-08T13:10:31.087Z,28.33
2017-07-08T13:11:32.531Z,28.23
2017-07-08T13:12:33.965Z,28.09